sensor_id;sensor_type;location;lat;lon;timestamp;P1;durP1;ratioP1;P2;durP2;ratioP2
27491;SDS011;14927;51.210;6.838;2022-11-20T00:00:21;21.05;;;12.95;;
27491;SDS011;14927;51.210;6.838;2022-11-20T00:03:05;19.35;;;13.32;;
27491;SDS011;14927;51.210;6.838;2022-11-20T00:05:50;20.38;;;13.68;;
27491;SDS011;14927;51.210;6.838;2022-11-20T00:08:35;21.55;;;14.43;;
27491;SDS011;14927;51.210;6.838;2022-11-20T00:11:21;20.60;;;14.48;;
27491;SDS011;14927;51.210;6.838;2022-11-20T00:14:08;24.42;;;15.65;;
27491;SDS011;14927;51.210;6.838;2022-11-20T00:16:54;21.27;;;14.82;;
27491;SDS011;14927;51.210;6.838;2022-11-20T00:19:38;25.63;;;15.60;;
27491;SDS011;14927;51.210;6.838;2022-11-20T00:22:23;24.65;;;15.63;;
27491;SDS011;14927;51.210;6.838;2022-11-20T00:25:07;23.65;;;14.73;;
27491;SDS011;14927;51.210;6.838;2022-11-20T00:27:52;23.27;;;15.88;;
27491;SDS011;14927;51.210;6.838;2022-11-20T00:30:37;26.92;;;16.92;;
27491;SDS011;14927;51.210;6.838;2022-11-20T00:33:21;24.10;;;16.17;;
27491;SDS011;14927;51.210;6.838;2022-11-20T00:36:07;26.60;;;16.80;;
27491;SDS011;14927;51.210;6.838;2022-11-20T00:38:55;25.15;;;15.85;;
27491;SDS011;14927;51.210;6.838;2022-11-20T00:41:41;22.58;;;15.32;;
27491;SDS011;14927;51.210;6.838;2022-11-20T00:44:26;22.45;;;14.90;;
27491;SDS011;14927;51.210;6.838;2022-11-20T00:47:11;23.40;;;15.52;;
27491;SDS011;14927;51.210;6.838;2022-11-20T00:49:55;23.92;;;16.48;;
27491;SDS011;14927;51.210;6.838;2022-11-20T00:52:40;23.95;;;16.40;;
27491;SDS011;14927;51.210;6.838;2022-11-20T00:55:24;22.33;;;15.35;;
27491;SDS011;14927;51.210;6.838;2022-11-20T00:58:09;24.73;;;15.77;;
27491;SDS011;14927;51.210;6.838;2022-11-20T01:00:59;24.65;;;16.40;;
27491;SDS011;14927;51.210;6.838;2022-11-20T01:03:52;21.58;;;15.88;;
27491;SDS011;14927;51.210;6.838;2022-11-20T01:06:39;24.75;;;16.17;;
27491;SDS011;14927;51.210;6.838;2022-11-20T01:09:23;29.70;;;17.38;;
27491;SDS011;14927;51.210;6.838;2022-11-20T01:12:08;22.98;;;16.38;;
27491;SDS011;14927;51.210;6.838;2022-11-20T01:14:53;21.38;;;14.75;;
27491;SDS011;14927;51.210;6.838;2022-11-20T01:17:37;24.25;;;15.48;;
27491;SDS011;14927;51.210;6.838;2022-11-20T01:20:22;23.77;;;16.40;;
27491;SDS011;14927;51.210;6.838;2022-11-20T01:23:06;21.55;;;15.20;;
27491;SDS011;14927;51.210;6.838;2022-11-20T01:25:51;22.73;;;15.07;;
27491;SDS011;14927;51.210;6.838;2022-11-20T01:28:36;23.00;;;15.77;;
27491;SDS011;14927;51.210;6.838;2022-11-20T01:34:12;25.20;;;15.88;;
27491;SDS011;14927;51.210;6.838;2022-11-20T01:37:00;22.60;;;14.85;;
27491;SDS011;14927;51.210;6.838;2022-11-20T01:39:45;22.77;;;15.55;;
27491;SDS011;14927;51.210;6.838;2022-11-20T01:42:30;25.70;;;16.25;;
27491;SDS011;14927;51.210;6.838;2022-11-20T01:51:59;21.77;;;15.13;;
27491;SDS011;14927;51.210;6.838;2022-11-20T01:54:54;23.40;;;15.48;;
27491;SDS011;14927;51.210;6.838;2022-11-20T01:57:51;22.90;;;15.55;;
27491;SDS011;14927;51.210;6.838;2022-11-20T02:00:38;26.30;;;16.95;;
27491;SDS011;14927;51.210;6.838;2022-11-20T02:03:23;22.17;;;15.68;;
27491;SDS011;14927;51.210;6.838;2022-11-20T02:06:10;23.92;;;15.57;;
27491;SDS011;14927;51.210;6.838;2022-11-20T02:09:05;23.90;;;15.98;;
27491;SDS011;14927;51.210;6.838;2022-11-20T02:11:50;25.25;;;16.58;;
27491;SDS011;14927;51.210;6.838;2022-11-20T02:14:36;23.33;;;16.40;;
27491;SDS011;14927;51.210;6.838;2022-11-20T02:17:20;24.88;;;15.60;;
27491;SDS011;14927;51.210;6.838;2022-11-20T02:20:05;24.73;;;16.75;;
27491;SDS011;14927;51.210;6.838;2022-11-20T02:23:15;22.60;;;15.63;;
27491;SDS011;14927;51.210;6.838;2022-11-20T02:26:05;24.40;;;16.50;;
27491;SDS011;14927;51.210;6.838;2022-11-20T02:28:55;23.38;;;15.82;;
27491;SDS011;14927;51.210;6.838;2022-11-20T02:31:42;24.08;;;16.58;;
27491;SDS011;14927;51.210;6.838;2022-11-20T02:34:27;24.23;;;15.93;;
27491;SDS011;14927;51.210;6.838;2022-11-20T02:37:12;23.75;;;15.68;;
27491;SDS011;14927;51.210;6.838;2022-11-20T02:39:58;25.73;;;16.30;;
27491;SDS011;14927;51.210;6.838;2022-11-20T02:42:43;24.90;;;17.02;;
27491;SDS011;14927;51.210;6.838;2022-11-20T02:45:27;24.70;;;16.33;;
27491;SDS011;14927;51.210;6.838;2022-11-20T02:48:12;23.13;;;16.52;;
27491;SDS011;14927;51.210;6.838;2022-11-20T02:50:56;24.98;;;16.15;;
27491;SDS011;14927;51.210;6.838;2022-11-20T02:53:41;22.85;;;16.05;;
27491;SDS011;14927;51.210;6.838;2022-11-20T02:56:26;26.40;;;16.42;;
27491;SDS011;14927;51.210;6.838;2022-11-20T02:59:11;24.77;;;16.83;;
27491;SDS011;14927;51.210;6.838;2022-11-20T03:01:55;22.75;;;16.05;;
27491;SDS011;14927;51.210;6.838;2022-11-20T03:04:40;24.30;;;17.27;;
27491;SDS011;14927;51.210;6.838;2022-11-20T03:07:24;25.85;;;17.40;;
27491;SDS011;14927;51.210;6.838;2022-11-20T03:10:09;26.65;;;17.27;;
27491;SDS011;14927;51.210;6.838;2022-11-20T03:12:54;23.15;;;16.50;;
27491;SDS011;14927;51.210;6.838;2022-11-20T03:15:39;25.88;;;17.17;;
27491;SDS011;14927;51.210;6.838;2022-11-20T03:18:24;26.42;;;16.50;;
27491;SDS011;14927;51.210;6.838;2022-11-20T03:21:12;25.75;;;16.55;;
27491;SDS011;14927;51.210;6.838;2022-11-20T03:23:58;25.58;;;17.30;;
27491;SDS011;14927;51.210;6.838;2022-11-20T03:26:43;23.95;;;17.00;;
27491;SDS011;14927;51.210;6.838;2022-11-20T03:29:27;25.80;;;17.10;;
27491;SDS011;14927;51.210;6.838;2022-11-20T03:32:12;22.52;;;15.75;;
27491;SDS011;14927;51.210;6.838;2022-11-20T03:34:56;25.58;;;16.10;;
27491;SDS011;14927;51.210;6.838;2022-11-20T03:37:41;25.30;;;15.88;;
27491;SDS011;14927;51.210;6.838;2022-11-20T03:40:26;24.42;;;16.23;;
27491;SDS011;14927;51.210;6.838;2022-11-20T03:43:10;23.95;;;15.88;;
27491;SDS011;14927;51.210;6.838;2022-11-20T03:45:55;22.83;;;16.02;;
27491;SDS011;14927;51.210;6.838;2022-11-20T03:48:39;24.73;;;15.88;;
27491;SDS011;14927;51.210;6.838;2022-11-20T03:51:25;24.08;;;15.45;;
27491;SDS011;14927;51.210;6.838;2022-11-20T03:54:12;23.35;;;16.70;;
27491;SDS011;14927;51.210;6.838;2022-11-20T03:56:57;23.35;;;15.57;;
27491;SDS011;14927;51.210;6.838;2022-11-20T03:59:42;22.83;;;15.48;;
27491;SDS011;14927;51.210;6.838;2022-11-20T04:02:26;24.05;;;16.20;;
27491;SDS011;14927;51.210;6.838;2022-11-20T04:05:11;25.23;;;15.40;;
27491;SDS011;14927;51.210;6.838;2022-11-20T04:07:55;21.08;;;14.80;;
27491;SDS011;14927;51.210;6.838;2022-11-20T04:10:40;25.83;;;16.20;;
27491;SDS011;14927;51.210;6.838;2022-11-20T04:13:24;24.02;;;15.90;;
27491;SDS011;14927;51.210;6.838;2022-11-20T04:16:09;25.75;;;16.05;;
27491;SDS011;14927;51.210;6.838;2022-11-20T04:18:55;23.33;;;16.52;;
27491;SDS011;14927;51.210;6.838;2022-11-20T04:21:41;26.77;;;16.73;;
27491;SDS011;14927;51.210;6.838;2022-11-20T04:24:26;24.27;;;15.98;;
27491;SDS011;14927;51.210;6.838;2022-11-20T04:27:11;21.45;;;14.85;;
27491;SDS011;14927;51.210;6.838;2022-11-20T04:29:55;22.20;;;14.63;;
27491;SDS011;14927;51.210;6.838;2022-11-20T04:32:40;22.73;;;14.85;;
27491;SDS011;14927;51.210;6.838;2022-11-20T04:35:24;25.10;;;16.20;;
27491;SDS011;14927;51.210;6.838;2022-11-20T04:38:09;23.90;;;15.50;;
27491;SDS011;14927;51.210;6.838;2022-11-20T04:41:00;22.20;;;15.32;;
27491;SDS011;14927;51.210;6.838;2022-11-20T04:43:47;19.50;;;14.23;;
27491;SDS011;14927;51.210;6.838;2022-11-20T04:46:38;21.30;;;14.70;;
27491;SDS011;14927;51.210;6.838;2022-11-20T04:49:25;22.75;;;14.35;;
27491;SDS011;14927;51.210;6.838;2022-11-20T04:52:09;22.77;;;15.27;;
27491;SDS011;14927;51.210;6.838;2022-11-20T04:54:54;21.10;;;15.25;;
27491;SDS011;14927;51.210;6.838;2022-11-20T04:57:38;21.13;;;14.63;;
27491;SDS011;14927;51.210;6.838;2022-11-20T05:00:23;23.50;;;16.02;;
27491;SDS011;14927;51.210;6.838;2022-11-20T05:03:08;23.38;;;15.25;;
27491;SDS011;14927;51.210;6.838;2022-11-20T05:05:52;21.95;;;15.35;;
27491;SDS011;14927;51.210;6.838;2022-11-20T05:08:37;25.70;;;16.23;;
27491;SDS011;14927;51.210;6.838;2022-11-20T05:11:22;21.80;;;15.95;;
27491;SDS011;14927;51.210;6.838;2022-11-20T05:14:06;21.17;;;15.45;;
27491;SDS011;14927;51.210;6.838;2022-11-20T05:16:51;21.05;;;14.73;;
27491;SDS011;14927;51.210;6.838;2022-11-20T05:19:36;23.05;;;15.57;;
27491;SDS011;14927;51.210;6.838;2022-11-20T05:22:20;25.00;;;15.88;;
27491;SDS011;14927;51.210;6.838;2022-11-20T05:25:05;22.80;;;16.10;;
27491;SDS011;14927;51.210;6.838;2022-11-20T05:27:49;24.45;;;16.38;;
27491;SDS011;14927;51.210;6.838;2022-11-20T05:30:34;23.10;;;15.68;;
27491;SDS011;14927;51.210;6.838;2022-11-20T05:33:19;23.05;;;16.38;;
27491;SDS011;14927;51.210;6.838;2022-11-20T05:36:04;25.48;;;16.35;;
27491;SDS011;14927;51.210;6.838;2022-11-20T05:38:49;25.08;;;17.42;;
27491;SDS011;14927;51.210;6.838;2022-11-20T05:41:34;25.92;;;17.13;;
27491;SDS011;14927;51.210;6.838;2022-11-20T05:44:19;23.92;;;16.60;;
27491;SDS011;14927;51.210;6.838;2022-11-20T05:47:04;23.83;;;16.83;;
27491;SDS011;14927;51.210;6.838;2022-11-20T05:49:49;25.88;;;16.42;;
27491;SDS011;14927;51.210;6.838;2022-11-20T05:52:33;28.65;;;17.55;;
27491;SDS011;14927;51.210;6.838;2022-11-20T05:55:18;24.80;;;16.50;;
27491;SDS011;14927;51.210;6.838;2022-11-20T05:58:03;25.45;;;15.68;;
27491;SDS011;14927;51.210;6.838;2022-11-20T06:00:47;25.67;;;16.15;;
27491;SDS011;14927;51.210;6.838;2022-11-20T06:03:33;26.02;;;16.75;;
27491;SDS011;14927;51.210;6.838;2022-11-20T06:06:18;25.98;;;16.40;;
27491;SDS011;14927;51.210;6.838;2022-11-20T06:09:03;24.48;;;16.02;;
27491;SDS011;14927;51.210;6.838;2022-11-20T06:11:48;21.85;;;15.38;;
27491;SDS011;14927;51.210;6.838;2022-11-20T06:14:33;25.52;;;17.30;;
27491;SDS011;14927;51.210;6.838;2022-11-20T06:17:17;22.42;;;15.85;;
27491;SDS011;14927;51.210;6.838;2022-11-20T06:20:02;24.83;;;15.77;;
27491;SDS011;14927;51.210;6.838;2022-11-20T06:22:46;25.17;;;16.50;;
27491;SDS011;14927;51.210;6.838;2022-11-20T06:25:31;20.88;;;15.10;;
27491;SDS011;14927;51.210;6.838;2022-11-20T06:28:15;23.02;;;15.38;;
27491;SDS011;14927;51.210;6.838;2022-11-20T06:31:00;23.20;;;15.30;;
27491;SDS011;14927;51.210;6.838;2022-11-20T06:33:46;25.15;;;16.15;;
27491;SDS011;14927;51.210;6.838;2022-11-20T06:36:31;25.48;;;16.15;;
27491;SDS011;14927;51.210;6.838;2022-11-20T06:39:16;24.67;;;16.30;;
27491;SDS011;14927;51.210;6.838;2022-11-20T06:42:00;24.30;;;16.55;;
27491;SDS011;14927;51.210;6.838;2022-11-20T06:44:45;24.42;;;16.17;;
27491;SDS011;14927;51.210;6.838;2022-11-20T06:47:33;25.67;;;15.70;;
27491;SDS011;14927;51.210;6.838;2022-11-20T06:50:17;21.88;;;15.68;;
27491;SDS011;14927;51.210;6.838;2022-11-20T06:53:02;24.15;;;15.60;;
27491;SDS011;14927;51.210;6.838;2022-11-20T06:55:48;27.42;;;16.10;;
27491;SDS011;14927;51.210;6.838;2022-11-20T06:58:34;25.30;;;17.50;;
27491;SDS011;14927;51.210;6.838;2022-11-20T07:01:19;28.33;;;17.40;;
27491;SDS011;14927;51.210;6.838;2022-11-20T07:04:04;27.30;;;17.38;;
27491;SDS011;14927;51.210;6.838;2022-11-20T07:06:49;25.55;;;17.38;;
27491;SDS011;14927;51.210;6.838;2022-11-20T07:09:34;26.95;;;17.45;;
27491;SDS011;14927;51.210;6.838;2022-11-20T07:12:18;28.08;;;16.92;;
27491;SDS011;14927;51.210;6.838;2022-11-20T07:15:03;24.20;;;17.58;;
27491;SDS011;14927;51.210;6.838;2022-11-20T07:17:48;28.95;;;18.10;;
27491;SDS011;14927;51.210;6.838;2022-11-20T07:20:32;27.52;;;17.05;;
27491;SDS011;14927;51.210;6.838;2022-11-20T07:23:17;24.15;;;16.27;;
27491;SDS011;14927;51.210;6.838;2022-11-20T07:26:05;26.80;;;18.25;;
27491;SDS011;14927;51.210;6.838;2022-11-20T07:28:52;23.08;;;16.50;;
27491;SDS011;14927;51.210;6.838;2022-11-20T07:31:37;27.13;;;16.92;;
27491;SDS011;14927;51.210;6.838;2022-11-20T07:34:22;25.45;;;16.88;;
27491;SDS011;14927;51.210;6.838;2022-11-20T07:37:07;28.10;;;16.80;;
27491;SDS011;14927;51.210;6.838;2022-11-20T07:39:51;24.13;;;16.10;;
27491;SDS011;14927;51.210;6.838;2022-11-20T07:42:36;24.40;;;16.25;;
27491;SDS011;14927;51.210;6.838;2022-11-20T07:45:21;24.38;;;16.90;;
27491;SDS011;14927;51.210;6.838;2022-11-20T07:48:07;25.17;;;16.80;;
27491;SDS011;14927;51.210;6.838;2022-11-20T07:50:55;24.45;;;16.40;;
27491;SDS011;14927;51.210;6.838;2022-11-20T07:53:40;26.10;;;17.15;;
27491;SDS011;14927;51.210;6.838;2022-11-20T07:56:24;25.42;;;16.30;;
27491;SDS011;14927;51.210;6.838;2022-11-20T07:59:09;26.42;;;17.88;;
27491;SDS011;14927;51.210;6.838;2022-11-20T08:01:55;28.17;;;18.17;;
27491;SDS011;14927;51.210;6.838;2022-11-20T08:04:40;26.13;;;17.90;;
27491;SDS011;14927;51.210;6.838;2022-11-20T08:07:24;25.42;;;18.15;;
27491;SDS011;14927;51.210;6.838;2022-11-20T08:10:10;27.15;;;18.38;;
27491;SDS011;14927;51.210;6.838;2022-11-20T08:12:57;28.13;;;19.10;;
27491;SDS011;14927;51.210;6.838;2022-11-20T08:16:00;27.02;;;19.08;;
27491;SDS011;14927;51.210;6.838;2022-11-20T08:18:44;27.83;;;18.30;;
27491;SDS011;14927;51.210;6.838;2022-11-20T08:21:32;29.55;;;19.63;;
27491;SDS011;14927;51.210;6.838;2022-11-20T08:24:17;27.45;;;18.65;;
27491;SDS011;14927;51.210;6.838;2022-11-20T08:27:02;26.08;;;18.05;;
27491;SDS011;14927;51.210;6.838;2022-11-20T08:29:46;26.63;;;17.45;;
27491;SDS011;14927;51.210;6.838;2022-11-20T08:32:31;26.60;;;18.02;;
27491;SDS011;14927;51.210;6.838;2022-11-20T08:35:16;29.15;;;19.23;;
27491;SDS011;14927;51.210;6.838;2022-11-20T08:38:01;28.63;;;18.77;;
27491;SDS011;14927;51.210;6.838;2022-11-20T08:40:46;27.65;;;19.20;;
27491;SDS011;14927;51.210;6.838;2022-11-20T08:43:52;31.92;;;19.98;;
27491;SDS011;14927;51.210;6.838;2022-11-20T08:46:42;27.25;;;17.38;;
27491;SDS011;14927;51.210;6.838;2022-11-20T08:49:30;28.55;;;17.70;;
27491;SDS011;14927;51.210;6.838;2022-11-20T08:52:18;30.63;;;19.63;;
27491;SDS011;14927;51.210;6.838;2022-11-20T08:55:03;28.15;;;17.98;;
27491;SDS011;14927;51.210;6.838;2022-11-20T08:57:49;25.45;;;17.50;;
27491;SDS011;14927;51.210;6.838;2022-11-20T09:00:34;26.00;;;17.70;;
27491;SDS011;14927;51.210;6.838;2022-11-20T09:03:18;27.25;;;17.02;;
27491;SDS011;14927;51.210;6.838;2022-11-20T09:06:04;25.05;;;16.50;;
27491;SDS011;14927;51.210;6.838;2022-11-20T09:08:54;23.67;;;16.77;;
27491;SDS011;14927;51.210;6.838;2022-11-20T09:11:39;22.85;;;16.35;;
27491;SDS011;14927;51.210;6.838;2022-11-20T09:14:23;24.17;;;16.25;;
27491;SDS011;14927;51.210;6.838;2022-11-20T09:17:12;22.27;;;15.43;;
27491;SDS011;14927;51.210;6.838;2022-11-20T09:19:58;25.15;;;15.77;;
27491;SDS011;14927;51.210;6.838;2022-11-20T09:22:42;25.30;;;15.90;;
27491;SDS011;14927;51.210;6.838;2022-11-20T09:25:27;22.63;;;14.68;;
27491;SDS011;14927;51.210;6.838;2022-11-20T09:28:11;22.85;;;15.82;;
27491;SDS011;14927;51.210;6.838;2022-11-20T09:30:57;24.35;;;15.98;;
27491;SDS011;14927;51.210;6.838;2022-11-20T09:33:42;22.17;;;15.90;;
27491;SDS011;14927;51.210;6.838;2022-11-20T09:36:27;25.95;;;14.98;;
27491;SDS011;14927;51.210;6.838;2022-11-20T09:39:11;21.00;;;15.43;;
27491;SDS011;14927;51.210;6.838;2022-11-20T09:42:00;21.38;;;15.20;;
27491;SDS011;14927;51.210;6.838;2022-11-20T09:54:44;23.70;;;16.75;;
27491;SDS011;14927;51.210;6.838;2022-11-20T09:57:32;26.02;;;14.95;;
27491;SDS011;14927;51.210;6.838;2022-11-20T10:00:20;19.45;;;14.60;;
27491;SDS011;14927;51.210;6.838;2022-11-20T10:03:13;23.02;;;15.20;;
27491;SDS011;14927;51.210;6.838;2022-11-20T10:06:04;21.13;;;14.73;;
27491;SDS011;14927;51.210;6.838;2022-11-20T10:08:58;22.83;;;16.48;;
27491;SDS011;14927;51.210;6.838;2022-11-20T10:12:14;24.30;;;16.58;;
27491;SDS011;14927;51.210;6.838;2022-11-20T10:15:33;23.30;;;13.73;;
27491;SDS011;14927;51.210;6.838;2022-11-20T10:18:44;20.90;;;13.40;;
27491;SDS011;14927;51.210;6.838;2022-11-20T10:27:56;21.13;;;14.38;;
27491;SDS011;14927;51.210;6.838;2022-11-20T10:31:10;23.85;;;14.90;;
27491;SDS011;14927;51.210;6.838;2022-11-20T10:34:03;24.27;;;15.27;;
27491;SDS011;14927;51.210;6.838;2022-11-20T10:37:21;26.13;;;15.27;;
27491;SDS011;14927;51.210;6.838;2022-11-20T10:43:13;25.10;;;16.52;;
27491;SDS011;14927;51.210;6.838;2022-11-20T10:46:08;25.20;;;16.08;;
27491;SDS011;14927;51.210;6.838;2022-11-20T10:49:01;23.98;;;16.17;;
27491;SDS011;14927;51.210;6.838;2022-11-20T10:55:28;25.30;;;16.48;;
27491;SDS011;14927;51.210;6.838;2022-11-20T10:58:43;23.75;;;15.80;;
27491;SDS011;14927;51.210;6.838;2022-11-20T11:01:41;24.27;;;16.50;;
27491;SDS011;14927;51.210;6.838;2022-11-20T11:04:32;23.92;;;15.82;;
27491;SDS011;14927;51.210;6.838;2022-11-20T11:07:33;23.23;;;15.80;;
27491;SDS011;14927;51.210;6.838;2022-11-20T11:10:32;27.10;;;16.88;;
27491;SDS011;14927;51.210;6.838;2022-11-20T11:13:43;22.25;;;15.43;;
27491;SDS011;14927;51.210;6.838;2022-11-20T11:16:27;24.90;;;15.77;;
27491;SDS011;14927;51.210;6.838;2022-11-20T11:19:12;25.45;;;15.85;;
27491;SDS011;14927;51.210;6.838;2022-11-20T11:21:57;23.27;;;15.20;;
27491;SDS011;14927;51.210;6.838;2022-11-20T11:24:43;22.58;;;14.90;;
27491;SDS011;14927;51.210;6.838;2022-11-20T11:27:45;22.65;;;14.63;;
27491;SDS011;14927;51.210;6.838;2022-11-20T11:30:40;22.67;;;14.77;;
27491;SDS011;14927;51.210;6.838;2022-11-20T11:33:28;23.17;;;15.13;;
27491;SDS011;14927;51.210;6.838;2022-11-20T11:36:21;23.40;;;15.95;;
27491;SDS011;14927;51.210;6.838;2022-11-20T11:39:13;23.63;;;15.45;;
27491;SDS011;14927;51.210;6.838;2022-11-20T11:42:00;23.13;;;15.52;;
27491;SDS011;14927;51.210;6.838;2022-11-20T11:44:46;23.08;;;16.45;;
27491;SDS011;14927;51.210;6.838;2022-11-20T11:47:50;25.80;;;16.05;;
27491;SDS011;14927;51.210;6.838;2022-11-20T11:50:36;27.05;;;16.85;;
27491;SDS011;14927;51.210;6.838;2022-11-20T11:53:21;24.58;;;16.67;;
27491;SDS011;14927;51.210;6.838;2022-11-20T11:56:09;25.98;;;17.23;;
27491;SDS011;14927;51.210;6.838;2022-11-20T11:58:54;24.60;;;16.75;;
27491;SDS011;14927;51.210;6.838;2022-11-20T12:01:47;25.90;;;16.10;;
27491;SDS011;14927;51.210;6.838;2022-11-20T12:04:46;24.67;;;16.40;;
27491;SDS011;14927;51.210;6.838;2022-11-20T12:07:45;27.10;;;17.15;;
27491;SDS011;14927;51.210;6.838;2022-11-20T12:10:47;28.85;;;16.55;;
27491;SDS011;14927;51.210;6.838;2022-11-20T12:16:37;24.05;;;16.05;;
27491;SDS011;14927;51.210;6.838;2022-11-20T12:19:23;23.92;;;16.08;;
27491;SDS011;14927;51.210;6.838;2022-11-20T12:22:13;28.70;;;17.27;;
27491;SDS011;14927;51.210;6.838;2022-11-20T12:25:31;23.65;;;15.70;;
27491;SDS011;14927;51.210;6.838;2022-11-20T12:28:23;26.92;;;16.73;;
27491;SDS011;14927;51.210;6.838;2022-11-20T12:35:03;27.75;;;17.15;;
27491;SDS011;14927;51.210;6.838;2022-11-20T12:38:43;25.98;;;17.70;;
27491;SDS011;14927;51.210;6.838;2022-11-20T13:00:18;28.52;;;18.65;;
27491;SDS011;14927;51.210;6.838;2022-11-20T13:06:18;30.00;;;19.35;;
27491;SDS011;14927;51.210;6.838;2022-11-20T13:09:04;33.72;;;20.75;;
27491;SDS011;14927;51.210;6.838;2022-11-20T13:18:16;31.63;;;20.52;;
27491;SDS011;14927;51.210;6.838;2022-11-20T13:21:01;33.03;;;22.13;;
27491;SDS011;14927;51.210;6.838;2022-11-20T13:24:20;35.47;;;22.02;;
27491;SDS011;14927;51.210;6.838;2022-11-20T13:33:06;31.65;;;20.27;;
27491;SDS011;14927;51.210;6.838;2022-11-20T13:35:56;32.85;;;20.70;;
27491;SDS011;14927;51.210;6.838;2022-11-20T13:38:44;31.25;;;19.92;;
27491;SDS011;14927;51.210;6.838;2022-11-20T13:41:38;31.45;;;19.27;;
27491;SDS011;14927;51.210;6.838;2022-11-20T13:44:29;32.30;;;20.13;;
27491;SDS011;14927;51.210;6.838;2022-11-20T13:47:23;30.23;;;19.05;;
27491;SDS011;14927;51.210;6.838;2022-11-20T13:50:13;33.20;;;20.23;;
27491;SDS011;14927;51.210;6.838;2022-11-20T13:56:18;28.65;;;19.13;;
27491;SDS011;14927;51.210;6.838;2022-11-20T14:03:14;29.02;;;18.58;;
27491;SDS011;14927;51.210;6.838;2022-11-20T14:09:24;31.05;;;18.33;;
27491;SDS011;14927;51.210;6.838;2022-11-20T14:12:16;29.92;;;18.20;;
27491;SDS011;14927;51.210;6.838;2022-11-20T14:15:04;35.22;;;20.48;;
27491;SDS011;14927;51.210;6.838;2022-11-20T14:17:49;28.92;;;18.83;;
27491;SDS011;14927;51.210;6.838;2022-11-20T14:20:33;31.23;;;19.33;;
27491;SDS011;14927;51.210;6.838;2022-11-20T14:23:25;35.20;;;19.45;;
27491;SDS011;14927;51.210;6.838;2022-11-20T14:26:13;30.33;;;19.90;;
27491;SDS011;14927;51.210;6.838;2022-11-20T14:29:01;31.00;;;19.40;;
27491;SDS011;14927;51.210;6.838;2022-11-20T14:31:46;30.80;;;19.45;;
27491;SDS011;14927;51.210;6.838;2022-11-20T14:34:37;30.67;;;18.80;;
27491;SDS011;14927;51.210;6.838;2022-11-20T14:37:24;33.58;;;19.35;;
27491;SDS011;14927;51.210;6.838;2022-11-20T14:43:29;32.92;;;19.80;;
27491;SDS011;14927;51.210;6.838;2022-11-20T14:46:14;32.65;;;19.13;;
27491;SDS011;14927;51.210;6.838;2022-11-20T14:49:00;31.95;;;19.80;;
27491;SDS011;14927;51.210;6.838;2022-11-20T14:51:47;32.85;;;20.17;;
27491;SDS011;14927;51.210;6.838;2022-11-20T14:55:07;29.20;;;18.33;;
27491;SDS011;14927;51.210;6.838;2022-11-20T14:58:04;30.17;;;19.83;;
27491;SDS011;14927;51.210;6.838;2022-11-20T15:01:07;31.77;;;19.75;;
27491;SDS011;14927;51.210;6.838;2022-11-20T15:04:11;28.38;;;18.23;;
27491;SDS011;14927;51.210;6.838;2022-11-20T15:06:57;29.10;;;18.37;;
27491;SDS011;14927;51.210;6.838;2022-11-20T15:09:42;28.10;;;17.88;;
27491;SDS011;14927;51.210;6.838;2022-11-20T15:12:27;27.80;;;17.10;;
27491;SDS011;14927;51.210;6.838;2022-11-20T15:15:14;32.63;;;17.98;;
27491;SDS011;14927;51.210;6.838;2022-11-20T15:18:22;28.35;;;16.95;;
27491;SDS011;14927;51.210;6.838;2022-11-20T15:21:13;26.02;;;17.08;;
27491;SDS011;14927;51.210;6.838;2022-11-20T15:24:07;26.90;;;16.80;;
27491;SDS011;14927;51.210;6.838;2022-11-20T15:26:52;27.40;;;17.25;;
27491;SDS011;14927;51.210;6.838;2022-11-20T15:29:37;29.23;;;18.13;;
27491;SDS011;14927;51.210;6.838;2022-11-20T15:32:22;27.70;;;17.85;;
27491;SDS011;14927;51.210;6.838;2022-11-20T15:35:06;24.88;;;15.90;;
27491;SDS011;14927;51.210;6.838;2022-11-20T15:37:52;25.02;;;16.45;;
27491;SDS011;14927;51.210;6.838;2022-11-20T15:40:36;26.48;;;17.50;;
27491;SDS011;14927;51.210;6.838;2022-11-20T15:43:21;28.17;;;16.90;;
27491;SDS011;14927;51.210;6.838;2022-11-20T15:46:10;26.65;;;17.00;;
27491;SDS011;14927;51.210;6.838;2022-11-20T15:48:57;28.50;;;16.52;;
27491;SDS011;14927;51.210;6.838;2022-11-20T15:51:45;26.10;;;16.83;;
27491;SDS011;14927;51.210;6.838;2022-11-20T15:54:32;26.23;;;17.70;;
27491;SDS011;14927;51.210;6.838;2022-11-20T15:57:17;26.92;;;17.17;;
27491;SDS011;14927;51.210;6.838;2022-11-20T16:00:02;27.60;;;17.50;;
27491;SDS011;14927;51.210;6.838;2022-11-20T16:02:47;27.35;;;17.58;;
27491;SDS011;14927;51.210;6.838;2022-11-20T16:05:32;28.40;;;18.33;;
27491;SDS011;14927;51.210;6.838;2022-11-20T16:08:17;27.02;;;17.05;;
27491;SDS011;14927;51.210;6.838;2022-11-20T16:11:02;28.50;;;17.27;;
27491;SDS011;14927;51.210;6.838;2022-11-20T16:13:47;26.88;;;17.33;;
27491;SDS011;14927;51.210;6.838;2022-11-20T16:16:50;28.42;;;17.20;;
27491;SDS011;14927;51.210;6.838;2022-11-20T16:19:34;34.30;;;19.30;;
27491;SDS011;14927;51.210;6.838;2022-11-20T16:22:19;28.23;;;17.25;;
27491;SDS011;14927;51.210;6.838;2022-11-20T16:25:04;26.88;;;17.65;;
27491;SDS011;14927;51.210;6.838;2022-11-20T16:27:49;26.25;;;16.10;;
27491;SDS011;14927;51.210;6.838;2022-11-20T16:30:34;24.00;;;16.15;;
27491;SDS011;14927;51.210;6.838;2022-11-20T16:33:19;25.48;;;16.52;;
27491;SDS011;14927;51.210;6.838;2022-11-20T16:36:09;27.38;;;16.27;;
27491;SDS011;14927;51.210;6.838;2022-11-20T16:38:56;26.17;;;16.15;;
27491;SDS011;14927;51.210;6.838;2022-11-20T16:41:43;25.80;;;15.98;;
27491;SDS011;14927;51.210;6.838;2022-11-20T16:44:28;28.08;;;17.65;;
27491;SDS011;14927;51.210;6.838;2022-11-20T16:47:12;26.67;;;15.88;;
27491;SDS011;14927;51.210;6.838;2022-11-20T16:49:57;26.88;;;16.52;;
27491;SDS011;14927;51.210;6.838;2022-11-20T16:52:41;27.80;;;16.08;;
27491;SDS011;14927;51.210;6.838;2022-11-20T16:55:26;26.65;;;15.90;;
27491;SDS011;14927;51.210;6.838;2022-11-20T16:58:11;26.88;;;15.88;;
27491;SDS011;14927;51.210;6.838;2022-11-20T17:00:55;26.80;;;15.70;;
27491;SDS011;14927;51.210;6.838;2022-11-20T17:03:40;24.20;;;15.48;;
27491;SDS011;14927;51.210;6.838;2022-11-20T17:06:28;27.35;;;14.85;;
27491;SDS011;14927;51.210;6.838;2022-11-20T17:09:15;26.10;;;15.48;;
27491;SDS011;14927;51.210;6.838;2022-11-20T17:11:59;23.75;;;15.32;;
27491;SDS011;14927;51.210;6.838;2022-11-20T17:14:44;27.60;;;16.25;;
27491;SDS011;14927;51.210;6.838;2022-11-20T17:17:28;25.10;;;15.70;;
27491;SDS011;14927;51.210;6.838;2022-11-20T17:20:13;23.20;;;13.15;;
27491;SDS011;14927;51.210;6.838;2022-11-20T17:22:57;22.92;;;14.55;;
27491;SDS011;14927;51.210;6.838;2022-11-20T17:25:42;25.08;;;14.70;;
27491;SDS011;14927;51.210;6.838;2022-11-20T17:28:27;21.63;;;14.07;;
27491;SDS011;14927;51.210;6.838;2022-11-20T17:31:13;20.50;;;12.98;;
27491;SDS011;14927;51.210;6.838;2022-11-20T17:34:00;21.40;;;12.05;;
27491;SDS011;14927;51.210;6.838;2022-11-20T17:36:45;17.55;;;11.10;;
27491;SDS011;14927;51.210;6.838;2022-11-20T17:39:29;20.30;;;11.75;;
27491;SDS011;14927;51.210;6.838;2022-11-20T17:42:14;17.05;;;10.57;;
27491;SDS011;14927;51.210;6.838;2022-11-20T17:45:12;14.98;;;9.52;;
27491;SDS011;14927;51.210;6.838;2022-11-20T17:47:56;14.90;;;9.10;;